Time;durP1;ratioP1;P1;durP2;ratioP2;P2;SDS_P1;SDS_P2;PMS_P1;PMS_P2;Temp;Humidity;BMP_temperature;BMP_pressure;BME280_temperature;BME280_humidity;BME280_pressure;Samples;Min_cycle;Max_cycle;Signal;HPM_P1;HPM_P2
2024/01/30 00:00:06;;;;;;;;;;;;;;;23.11;33.08;102308.41;4197122;28;19924;-67
2024/01/30 00:02:08;;;;;;;;;;;;;;;23.12;33.17;102305.63;4197087;28;20002;-67
2024/01/30 00:04:09;;;;;;;;;;;;;;;23.12;33.27;102302.97;4197073;28;19960;-67
2024/01/30 00:06:11;;;;;;;;;;;;;;;23.12;33.34;102300.28;4197131;28;19943;-67
2024/01/30 00:08:13;;;;;;;;;;;;;;;23.12;33.38;102304.75;4196887;28;19924;-67
2024/01/30 00:10:14;;;;;;;;;;;;;;;23.14;33.21;102302.84;4197223;28;19927;-67
2024/01/30 00:12:16;;;;;;;;;;;;;;;23.13;33.24;102291.22;4196896;28;19982;-68
2024/01/30 00:14:18;;;;;;;;;;;;;;;23.16;33.17;102294.69;4197430;28;20320;-67
2024/01/30 00:16:26;;;;;;;;;;;;;;;23.15;32.89;102304.56;4196857;28;19920;-68
2024/01/30 00:18:27;;;;;;;;;;;;;;;23.14;32.78;102309.06;4196624;28;19927;-66
2024/01/30 00:20:28;;;;;;;;;;;;;;;23.16;33.20;102300.06;4197139;28;20383;-67
2024/01/30 00:22:30;;;;;;;;;;;;;;;23.14;33.04;102303.69;4196613;28;20008;-67
2024/01/30 00:24:32;;;;;;;;;;;;;;;23.14;33.21;102311.75;4195983;28;19934;-67
2024/01/30 00:26:33;;;;;;;;;;;;;;;23.14;33.21;102311.75;4196970;28;19922;-67
2024/01/30 00:28:35;;;;;;;;;;;;;;;23.16;33.18;102306.31;4196977;28;19921;-67
2024/01/30 00:30:37;;;;;;;;;;;;;;;23.18;33.15;102312.44;4197210;28;20374;-67
2024/01/30 00:32:38;;;;;;;;;;;;;;;23.17;33.22;102313.41;4196736;28;19921;-67
2024/01/30 00:34:41;;;;;;;;;;;;;;;23.17;32.96;102312.56;4197202;28;20007;-67
2024/01/30 00:36:43;;;;;;;;;;;;;;;23.17;33.20;102316.09;4205591;28;19927;-67
2024/01/30 00:38:44;;;;;;;;;;;;;;;23.18;32.88;102315.13;4197061;28;20415;-67
2024/01/30 00:40:46;;;;;;;;;;;;;;;23.17;33.30;102310.72;4196877;28;19920;-67
2024/01/30 00:42:47;;;;;;;;;;;;;;;23.18;33.03;102316.97;4196832;28;19921;-67
2024/01/30 00:44:49;;;;;;;;;;;;;;;23.19;33.03;102307.97;4197068;28;19943;-67
2024/01/30 00:46:51;;;;;;;;;;;;;;;23.17;33.12;102308.03;4197055;28;19920;-67
2024/01/30 00:48:52;;;;;;;;;;;;;;;23.15;33.18;102307.25;4196627;28;20030;-67
2024/01/30 00:50:54;;;;;;;;;;;;;;;23.12;33.26;102313.69;4196748;28;19920;-67
2024/01/30 00:52:55;;;;;;;;;;;;;;;23.14;33.25;102318.97;4196427;28;20007;-67
2024/01/30 00:54:57;;;;;;;;;;;;;;;23.14;33.06;102313.59;4196923;28;19926;-67
2024/01/30 00:56:59;;;;;;;;;;;;;;;23.14;33.24;102314.44;4197204;28;20379;-67
2024/01/30 00:59:00;;;;;;;;;;;;;;;23.16;33.28;102316.16;4196595;28;19927;-67
2024/01/30 01:01:02;;;;;;;;;;;;;;;23.18;33.11;102311.59;4197086;28;20363;-67
2024/01/30 01:03:04;;;;;;;;;;;;;;;23.17;32.92;102308.03;4196734;28;20283;-67
2024/01/30 01:05:06;;;;;;;;;;;;;;;23.20;33.15;102309.69;4196476;28;20019;-66
2024/01/30 01:07:08;;;;;;;;;;;;;;;23.20;33.15;102312.38;4196673;28;20294;-67
2024/01/30 01:09:13;;;;;;;;;;;;;;;23.21;33.10;102316.75;4196694;28;20294;-67
2024/01/30 01:11:15;;;;;;;;;;;;;;;23.20;33.16;102317.75;4196795;28;20019;-67
2024/01/30 01:13:16;;;;;;;;;;;;;;;23.17;33.12;102313.41;4195277;28;20027;-67
2024/01/30 01:15:18;;;;;;;;;;;;;;;23.17;32.92;102315.25;4196838;28;19940;-67
2024/01/30 01:17:20;;;;;;;;;;;;;;;23.14;33.08;102311.75;4196894;28;20027;-67
2024/01/30 01:19:21;;;;;;;;;;;;;;;23.16;32.85;102314.34;4196178;28;19967;-67
2024/01/30 01:21:23;;;;;;;;;;;;;;;23.14;33.24;102311.75;4196759;28;19931;-66
2024/01/30 01:23:25;;;;;;;;;;;;;;;23.15;33.01;102301.91;4195421;28;20732;-67
2024/01/30 01:25:26;;;;;;;;;;;;;;;23.18;33.07;102303.56;4196569;28;19964;-66
2024/01/30 01:27:28;;;;;;;;;;;;;;;23.19;33.07;102302.59;4196836;28;19921;-66
2024/01/30 01:29:29;;;;;;;;;;;;;;;23.21;33.03;102303.34;4197428;28;19952;-67
2024/01/30 01:31:31;;;;;;;;;;;;;;;23.19;33.07;102302.59;4199999;28;19920;-67
2024/01/30 01:33:33;;;;;;;;;;;;;;;23.19;33.25;102306.13;4199264;28;19927;-67
2024/01/30 01:35:34;;;;;;;;;;;;;;;23.18;33.17;102301.72;4199436;28;19924;-67
2024/01/30 01:37:36;;;;;;;;;;;;;;;23.17;32.98;102304.50;4199766;28;19920;-67
2024/01/30 01:39:38;;;;;;;;;;;;;;;23.18;32.89;102299.03;4199224;28;20019;-67
2024/01/30 01:41:39;;;;;;;;;;;;;;;23.18;32.98;102301.72;4199627;28;20355;-67
2024/01/30 01:43:41;;;;;;;;;;;;;;;23.17;32.93;102305.34;4198567;28;20291;-67
2024/01/30 01:45:42;;;;;;;;;;;;;;;23.17;33.04;102297.31;4199194;28;19974;-67
2024/01/30 01:47:45;;;;;;;;;;;;;;;23.19;32.86;102294.53;4199556;28;20006;-67
2024/01/30 01:49:47;;;;;;;;;;;;;;;23.17;33.23;102301.81;4199024;28;20350;-67
2024/01/30 01:51:50;;;;;;;;;;;;;;;23.16;33.20;102298.25;4199394;28;19973;-67
2024/01/30 01:53:53;;;;;;;;;;;;;;;23.18;33.24;102304.41;4199834;28;19924;-66
2024/01/30 01:55:55;;;;;;;;;;;;;;;23.17;32.85;102305.34;4199240;28;20014;-67
2024/01/30 01:57:57;;;;;;;;;;;;;;;23.20;33.16;102302.50;4199585;28;19931;-66
2024/01/30 01:59:59;;;;;;;;;;;;;;;23.20;33.27;102298.97;4199051;28;19920;-67
2024/01/30 02:02:02;;;;;;;;;;;;;;;23.22;33.17;102297.88;4199150;28;20293;-66
2024/01/30 02:04:04;;;;;;;;;;;;;;;23.22;32.90;102297.00;4199320;28;20275;-66
2024/01/30 02:06:05;;;;;;;;;;;;;;;23.22;33.17;102308.63;4199235;28;19920;-66
2024/01/30 02:08:08;;;;;;;;;;;;;;;23.21;33.16;102297.97;4199095;28;19926;-66
2024/01/30 02:10:10;;;;;;;;;;;;;;;23.20;32.76;102301.63;4197928;28;19954;-66
2024/01/30 02:12:11;;;;;;;;;;;;;;;23.18;33.13;102296.34;4199190;28;19927;-66
2024/01/30 02:14:13;;;;;;;;;;;;;;;23.18;33.28;102300.88;4199223;28;20409;-66
2024/01/30 02:16:14;;;;;;;;;;;;;;;23.18;33.06;102299.03;4199026;28;20390;-66
2024/01/30 02:18:16;;;;;;;;;;;;;;;23.17;33.07;102302.66;4198677;28;19921;-66
2024/01/30 02:20:18;;;;;;;;;;;;;;;23.17;33.08;102299.97;4198789;28;20050;-66
2024/01/30 02:22:20;;;;;;;;;;;;;;;23.19;33.25;102291.84;4198742;28;19920;-66
2024/01/30 02:24:21;;;;;;;;;;;;;;;23.19;33.30;102294.53;4199092;28;19920;-66
2024/01/30 02:26:23;;;;;;;;;;;;;;;23.19;32.86;102291.84;4198829;28;19927;-67
2024/01/30 02:28:24;;;;;;;;;;;;;;;23.20;33.17;102286.38;4198897;28;19926;-66
2024/01/30 02:30:26;;;;;;;;;;;;;;;23.19;33.17;102287.34;4198959;28;19966;-66
2024/01/30 02:32:28;;;;;;;;;;;;;;;23.19;33.01;102287.34;4198492;28;20345;-66
2024/01/30 02:34:29;;;;;;;;;;;;;;;23.18;33.16;102282.06;4199083;28;20328;-66
2024/01/30 02:36:31;;;;;;;;;;;;;;;23.18;33.04;102290.13;4198954;28;19931;-65
2024/01/30 02:38:32;;;;;;;;;;;;;;;23.16;33.22;102282.16;4198684;28;19956;-66
2024/01/30 02:40:34;;;;;;;;;;;;;;;23.16;33.28;102281.28;4198168;28;19924;-65
2024/01/30 02:42:35;;;;;;;;;;;;;;;23.17;33.33;102281.19;4198494;28;20389;-66
2024/01/30 02:44:37;;;;;;;;;;;;;;;23.17;32.94;102289.25;4198682;28;19920;-65
2024/01/30 02:46:38;;;;;;;;;;;;;;;23.18;33.16;102295.50;4198163;28;19920;-66
2024/01/30 02:48:40;;;;;;;;;;;;;;;23.19;32.96;102300.75;4198610;28;19968;-66
2024/01/30 02:50:42;;;;;;;;;;;;;;;23.19;33.22;102298.06;4197596;28;19924;-66
2024/01/30 02:52:46;;;;;;;;;;;;;;;23.19;32.98;102297.22;4198193;28;20387;-65
2024/01/30 02:54:47;;;;;;;;;;;;;;;23.20;33.11;102293.59;4198374;28;19928;-66
2024/01/30 02:56:49;;;;;;;;;;;;;;;23.19;32.89;102291.84;4198333;28;19927;-65
2024/01/30 02:58:51;;;;;;;;;;;;;;;23.19;33.34;102281.97;4187414;28;20312;-66
2024/01/30 03:00:52;;;;;;;;;;;;;;;23.19;32.96;102276.59;4198048;28;19925;-65
2024/01/30 03:02:54;;;;;;;;;;;;;;;23.20;33.25;102280.16;4196985;28;20038;-65
2024/01/30 03:04:56;;;;;;;;;;;;;;;23.17;33.35;102270.47;4198372;28;19928;-66
2024/01/30 03:06:57;;;;;;;;;;;;;;;23.17;33.23;102273.16;4197145;28;19928;-66
2024/01/30 03:08:59;;;;;;;;;;;;;;;23.18;33.35;102274.88;4198318;28;20011;-65
2024/01/30 03:11:01;;;;;;;;;;;;;;;23.19;33.31;102275.75;4198421;28;20395;-67
2024/01/30 03:13:03;;;;;;;;;;;;;;;23.17;33.24;102283.88;4198194;28;19974;-67
2024/01/30 03:15:05;;;;;;;;;;;;;;;23.19;32.94;102291.84;4197893;28;20007;-66
2024/01/30 03:17:06;;;;;;;;;;;;;;;23.18;32.98;102290.97;4197895;28;20319;-66
2024/01/30 03:19:09;;;;;;;;;;;;;;;23.19;33.21;102284.66;4197958;28;20015;-66
2024/01/30 03:21:11;;;;;;;;;;;;;;;23.18;33.36;102285.63;4198046;28;19924;-66
2024/01/30 03:23:12;;;;;;;;;;;;;;;23.19;33.11;102281.13;4198033;28;19920;-67
2024/01/30 03:25:13;;;;;;;;;;;;;;;23.19;33.17;102278.44;4198017;28;20323;-66
2024/01/30 03:27:15;;;;;;;;;;;;;;;23.20;33.05;102275.66;4197903;28;20430;-67
2024/01/30 03:29:17;;;;;;;;;;;;;;;23.21;33.10;102271.13;4197607;28;19920;-67
2024/01/30 03:31:18;;;;;;;;;;;;;;;23.20;33.35;102275.66;4197868;28;19927;-66
2024/01/30 03:33:20;;;;;;;;;;;;;;;23.20;33.27;102291.75;4197743;28;19956;-66
2024/01/30 03:35:22;;;;;;;;;;;;;;;23.18;33.37;102290.97;4197944;28;20020;-66
2024/01/30 03:37:23;;;;;;;;;;;;;;;23.20;33.36;102296.28;4214270;28;19955;-66
2024/01/30 03:39:25;;;;;;;;;;;;;;;23.20;33.03;102288.22;4198305;28;19920;-67
2024/01/30 03:41:27;;;;;;;;;;;;;;;23.20;33.35;102288.22;4197634;28;19921;-66
2024/01/30 03:43:29;;;;;;;;;;;;;;;23.21;33.31;102284.53;4197704;28;19927;-65
2024/01/30 03:45:30;;;;;;;;;;;;;;;23.21;33.65;102296.16;4197400;28;20018;-66
2024/01/30 03:47:32;;;;;;;;;;;;;;;23.20;33.19;102290.91;4197653;28;19960;-66
2024/01/30 03:49:33;;;;;;;;;;;;;;;23.19;33.34;102298.06;4197301;28;20006;-66
2024/01/30 03:51:35;;;;;;;;;;;;;;;23.21;33.46;102293.47;4197039;28;19924;-66
2024/01/30 03:53:36;;;;;;;;;;;;;;;23.20;33.16;102282.84;4197419;28;19969;-67
2024/01/30 03:55:38;;;;;;;;;;;;;;;23.20;32.98;102274.81;4197497;28;19920;-67
2024/01/30 03:57:40;;;;;;;;;;;;;;;23.19;33.50;102276.59;4198026;28;19920;-66
2024/01/30 03:59:42;;;;;;;;;;;;;;;23.19;33.24;102281.97;4197170;28;20363;-66
2024/01/30 04:01:46;;;;;;;;;;;;;;;23.18;33.14;102276.72;4197575;28;19963;-66
2024/01/30 04:03:47;;;;;;;;;;;;;;;23.19;33.16;102267.69;4197177;28;19963;-67
2024/01/30 04:05:51;;;;;;;;;;;;;;;23.20;33.10;102264.91;4197097;28;19921;-66
2024/01/30 04:07:53;;;;;;;;;;;;;;;23.20;33.24;102267.59;4197355;28;20016;-66
2024/01/30 04:09:54;;;;;;;;;;;;;;;23.21;33.30;102265.75;4197173;28;19920;-66
2024/01/30 04:11:56;;;;;;;;;;;;;;;23.21;33.34;102273.81;4197312;28;20354;-66
2024/01/30 04:13:58;;;;;;;;;;;;;;;23.22;33.10;102270.16;4196880;28;19928;-66
2024/01/30 04:16:03;;;;;;;;;;;;;;;23.22;33.18;102273.72;4193670;28;19963;-66
2024/01/30 04:18:05;;;;;;;;;;;;;;;23.20;33.15;102264.91;4197170;28;19928;-66
2024/01/30 04:20:07;;;;;;;;;;;;;;;23.21;33.43;102265.75;4195699;28;20280;-67
2024/01/30 04:22:08;;;;;;;;;;;;;;;23.19;33.06;102260.50;4197142;28;20378;-65
2024/01/30 04:24:10;;;;;;;;;;;;;;;23.19;33.23;102273.06;4197623;28;20033;-67
2024/01/30 04:26:11;;;;;;;;;;;;;;;23.18;33.35;102268.66;4195801;28;20315;-66
2024/01/30 04:28:13;;;;;;;;;;;;;;;23.18;33.24;102268.66;4195611;28;19920;-67
2024/01/30 04:30:15;;;;;;;;;;;;;;;23.17;33.63;102272.31;4197043;28;20347;-65
2024/01/30 04:32:16;;;;;;;;;;;;;;;23.16;33.25;102271.41;4197190;28;20381;-65
2024/01/30 04:34:18;;;;;;;;;;;;;;;23.17;33.43;102257.03;4197077;28;19927;-67
2024/01/30 04:36:19;;;;;;;;;;;;;;;23.17;33.61;102262.41;4204439;28;19928;-66
2024/01/30 04:38:21;;;;;;;;;;;;;;;23.18;33.54;102261.44;4197857;28;19920;-66
2024/01/30 04:40:22;;;;;;;;;;;;;;;23.19;33.66;102265.03;4196668;28;19926;-66
2024/01/30 04:42:24;;;;;;;;;;;;;;;23.20;33.40;102266.75;4196813;28;19920;-67
2024/01/30 04:44:26;;;;;;;;;;;;;;;23.20;33.42;102266.75;4197109;28;19952;-66
2024/01/30 04:46:28;;;;;;;;;;;;;;;23.20;33.40;102274.81;4197037;28;19924;-66
2024/01/30 04:48:29;;;;;;;;;;;;;;;23.19;33.67;102281.97;4196897;28;19947;-66
2024/01/30 04:50:31;;;;;;;;;;;;;;;23.19;33.58;102275.75;4195568;28;19935;-67
2024/01/30 04:52:33;;;;;;;;;;;;;;;23.19;33.62;102273.91;4196942;28;19943;-67
2024/01/30 04:54:35;;;;;;;;;;;;;;;23.19;33.53;102281.13;4196920;28;19920;-67
2024/01/30 04:56:36;;;;;;;;;;;;;;;23.18;33.58;102282.06;4196486;28;20345;-66
2024/01/30 04:58:38;;;;;;;;;;;;;;;23.16;33.40;102284.84;4197084;28;19920;-65
2024/01/30 05:00:39;;;;;;;;;;;;;;;23.17;33.35;102283.88;4196735;28;19929;-66
2024/01/30 05:02:41;;;;;;;;;;;;;;;23.19;33.70;102291.84;4197007;28;20345;-66
2024/01/30 05:04:42;;;;;;;;;;;;;;;23.21;33.69;102287.22;4200353;28;19943;-66
2024/01/30 05:06:44;;;;;;;;;;;;;;;23.21;33.61;102287.22;4200217;28;19966;-66
2024/01/30 05:08:46;;;;;;;;;;;;;;;23.21;33.70;102288.09;4200090;28;19932;-66
2024/01/30 05:10:47;;;;;;;;;;;;;;;23.20;33.68;102293.59;4200307;28;19921;-66
2024/01/30 05:12:49;;;;;;;;;;;;;;;23.22;33.46;102297.00;4198428;28;19920;-66
2024/01/30 05:14:50;;;;;;;;;;;;;;;23.21;33.54;102295.28;4200190;28;20352;-67
2024/01/30 05:16:52;;;;;;;;;;;;;;;23.21;33.53;102297.97;4198675;28;20030;-66
2024/01/30 05:18:54;;;;;;;;;;;;;;;23.21;33.45;102301.53;4200035;28;20405;-66
2024/01/30 05:20:56;;;;;;;;;;;;;;;23.21;33.66;102300.66;4200290;28;19924;-66
2024/01/30 05:22:57;;;;;;;;;;;;;;;23.20;33.46;102298.97;4199868;28;19927;-66
2024/01/30 05:24:58;;;;;;;;;;;;;;;23.17;33.56;102299.97;4200149;28;19954;-66
2024/01/30 05:27:00;;;;;;;;;;;;;;;23.19;33.74;102310.66;4199672;28;19920;-66
2024/01/30 05:29:02;;;;;;;;;;;;;;;23.19;33.54;102316.88;4198686;28;19920;-66
2024/01/30 05:31:09;;;;;;;;;;;;;;;23.21;33.60;102322.13;4199854;28;20027;-66
2024/01/30 05:33:12;;;;;;;;;;;;;;;23.21;33.59;102319.44;4199481;28;20000;-66
2024/01/30 05:35:14;;;;;;;;;;;;;;;23.20;33.50;102321.28;4199672;28;19927;-67
2024/01/30 05:37:16;;;;;;;;;;;;;;;23.21;33.48;102324.81;4208637;28;19924;-66
2024/01/30 05:39:18;;;;;;;;;;;;;;;23.21;33.54;102327.50;4198440;28;19972;-67
2024/01/30 05:41:21;;;;;;;;;;;;;;;23.20;33.41;102328.47;4199419;28;19924;-66
2024/01/30 05:43:22;;;;;;;;;;;;;;;23.19;33.77;102324.06;4199573;28;19924;-67
2024/01/30 05:45:24;;;;;;;;;;;;;;;23.18;33.58;102328.56;4199768;28;19924;-66
2024/01/30 05:47:26;;;;;;;;;;;;;;;23.17;33.57;102331.34;4199360;28;19955;-67
2024/01/30 05:49:28;;;;;;;;;;;;;;;23.17;33.44;102340.25;4199622;28;19928;-66
2024/01/30 05:51:29;;;;;;;;;;;;;;;23.17;33.50;102344.75;4199521;28;20386;-66
2024/01/30 05:53:31;;;;;;;;;;;;;;;23.18;33.58;102350.03;4199276;28;19920;-66
2024/01/30 05:55:32;;;;;;;;;;;;;;;23.17;33.48;102350.97;4197653;28;19928;-67
2024/01/30 05:57:39;;;;;;;;;;;;;;;23.19;33.79;102348.22;4199531;28;20306;-65
2024/01/30 05:59:40;;;;;;;;;;;;;;;23.20;33.77;102350.81;4199402;28;19924;-66
2024/01/30 06:01:48;;;;;;;;;;;;;;;23.21;33.57;102357.00;4198298;28;19951;-67
2024/01/30 06:03:50;;;;;;;;;;;;;;;23.22;33.66;102356.06;4199107;28;19965;-66
2024/01/30 06:05:52;;;;;;;;;;;;;;;23.21;33.67;102354.34;4199091;28;19970;-67
2024/01/30 06:07:53;;;;;;;;;;;;;;;23.22;33.57;102356.06;4198975;28;19934;-67
2024/01/30 06:09:55;;;;;;;;;;;;;;;23.23;33.87;102347.06;4199036;28;19920;-67
2024/01/30 06:11:57;;;;;;;;;;;;;;;23.21;33.65;102360.59;4197912;28;19920;-67
2024/01/30 06:13:59;;;;;;;;;;;;;;;23.21;33.69;102362.38;4198958;28;19920;-67
2024/01/30 06:16:00;;;;;;;;;;;;;;;23.20;33.59;102356.16;4198238;28;19962;-66
2024/01/30 06:18:02;;;;;;;;;;;;;;;23.20;33.64;102364.22;4199125;28;20276;-66
2024/01/30 06:20:04;;;;;;;;;;;;;;;23.22;33.79;102364.13;4199096;28;19920;-66
2024/01/30 06:22:05;;;;;;;;;;;;;;;23.22;33.58;102366.81;4199035;28;20019;-67
2024/01/30 06:24:07;;;;;;;;;;;;;;;23.22;33.61;102361.44;4198631;28;19959;-67
2024/01/30 06:26:09;;;;;;;;;;;;;;;23.22;33.85;102366.81;4198892;28;20031;-66
2024/01/30 06:28:11;;;;;;;;;;;;;;;23.22;33.58;102375.72;4198881;28;19952;-66
2024/01/30 06:30:18;;;;;;;;;;;;;;;23.23;33.57;102376.59;4197632;28;19925;-66
2024/01/30 06:32:19;;;;;;;;;;;;;;;23.22;33.65;102377.53;4198898;28;19920;-66
2024/01/30 06:34:21;;;;;;;;;;;;;;;23.22;33.81;102378.41;4198727;28;19920;-67
2024/01/30 06:36:23;;;;;;;;;;;;;;;23.22;33.95;102386.47;4206795;28;19973;-66
2024/01/30 06:38:24;;;;;;;;;;;;;;;23.21;33.96;102387.44;4215395;28;20370;-67
2024/01/30 06:40:26;;;;;;;;;;;;;;;23.21;33.72;102387.44;4199569;28;19924;-66
2024/01/30 06:42:32;;;;;;;;;;;;;;;23.21;33.66;102386.53;4198691;28;20019;-68
2024/01/30 06:44:34;;;;;;;;;;;;;;;23.20;33.52;102388.38;4198647;28;20294;-66
2024/01/30 06:46:35;;;;;;;;;;;;;;;23.21;33.92;102382.06;4198641;28;19920;-67
2024/01/30 06:48:40;;;;;;;;;;;;;;;23.20;33.95;102387.53;4198706;28;19921;-67
2024/01/30 06:50:41;;;;;;;;;;;;;;;23.21;33.71;102386.53;4198518;28;20406;-67
2024/01/30 06:52:43;;;;;;;;;;;;;;;23.21;33.88;102386.53;4197441;28;20418;-67
2024/01/30 06:54:45;;;;;;;;;;;;;;;23.20;33.88;102385.69;4198423;28;19928;-67
2024/01/30 06:56:46;;;;;;;;;;;;;;;23.21;33.67;102391.91;4187361;28;20280;-67
2024/01/30 06:58:48;;;;;;;;;;;;;;;23.22;34.13;102399.88;4198566;28;19920;-66
2024/01/30 07:00:51;;;;;;;;;;;;;;;23.24;33.88;102392.59;4197223;28;20284;-66
2024/01/30 07:02:53;;;;;;;;;;;;;;;23.22;34.00;102397.22;4198456;28;19924;-66
2024/01/30 07:04:54;;;;;;;;;;;;;;;23.22;34.02;102388.28;4198133;28;19928;-66
2024/01/30 07:06:57;;;;;;;;;;;;;;;23.23;34.04;102395.38;4197954;28;20406;-68
2024/01/30 07:08:59;;;;;;;;;;;;;;;23.23;33.73;102396.25;4198590;28;19960;-66
2024/01/30 07:11:00;;;;;;;;;;;;;;;23.24;34.09;102399.78;4198100;28;19943;-65
2024/01/30 07:13:04;;;;;;;;;;;;;;;23.23;33.83;102403.44;4197149;28;20325;-66
2024/01/30 07:15:08;;;;;;;;;;;;;;;23.22;33.96;102401.69;4198087;28;19920;-67
2024/01/30 07:17:09;;;;;;;;;;;;;;;23.21;34.17;102408.91;4198071;28;19978;-68
2024/01/30 07:19:11;;;;;;;;;;;;;;;23.22;33.85;102404.38;4198202;28;20307;-68
2024/01/30 07:21:13;;;;;;;;;;;;;;;23.22;33.98;102410.63;4197989;28;19920;-68
2024/01/30 07:23:16;;;;;;;;;;;;;;;23.23;34.14;102411.47;4197677;28;19974;-68
2024/01/30 07:25:18;;;;;;;;;;;;;;;23.22;33.78;102420.47;4197989;28;19920;-68
2024/01/30 07:27:19;;;;;;;;;;;;;;;23.23;33.95;102414.16;4197913;28;19934;-68
2024/01/30 07:29:22;;;;;;;;;;;;;;;23.23;33.90;102422.22;4197962;28;19920;-67
2024/01/30 07:31:23;;;;;;;;;;;;;;;23.23;33.94;102420.41;4197622;28;19928;-67
2024/01/30 07:33:30;;;;;;;;;;;;;;;23.23;34.06;102423.09;4197996;28;19963;-68
2024/01/30 07:35:31;;;;;;;;;;;;;;;23.23;34.12;102425.78;4198002;28;19942;-68
2024/01/30 07:37:33;;;;;;;;;;;;;;;23.25;33.84;102426.53;4196623;28;20343;-68
2024/01/30 07:39:35;;;;;;;;;;;;;;;23.24;33.84;102430.16;4197760;28;19975;-67
2024/01/30 07:41:37;;;;;;;;;;;;;;;23.24;33.87;102437.38;4197547;28;20400;-67
2024/01/30 07:43:38;;;;;;;;;;;;;;;23.24;33.81;102435.53;4197781;28;19927;-66
2024/01/30 07:45:40;;;;;;;;;;;;;;;23.24;34.17;102442.75;4197903;28;20010;-67
2024/01/30 07:47:42;;;;;;;;;;;;;;;23.24;34.08;102446.28;4197644;28;19927;-67
2024/01/30 07:49:44;;;;;;;;;;;;;;;23.24;34.17;102445.41;4197584;28;19920;-67
2024/01/30 07:51:46;;;;;;;;;;;;;;;23.26;34.12;102455.09;4197145;28;19924;-67
2024/01/30 07:53:54;;;;;;;;;;;;;;;23.26;34.08;102447.03;4197313;28;19937;-68
2024/01/30 07:55:55;;;;;;;;;;;;;;;23.26;34.23;102449.72;4197557;28;20399;-67
2024/01/30 07:57:57;;;;;;;;;;;;;;;23.26;34.12;102448.88;4197350;28;19921;-67
2024/01/30 07:59:58;;;;;;;;;;;;;;;23.27;34.20;102454.16;4197553;28;19934;-67
2024/01/30 08:02:00;;;;;;;;;;;;;;;23.26;34.25;102463.16;4197133;28;20291;-67
2024/01/30 08:04:02;;;;;;;;;;;;;;;23.26;34.14;102455.09;4197573;28;19970;-67
2024/01/30 08:06:04;;;;;;;;;;;;;;;23.26;34.19;102465.84;4197273;28;20399;-68
2024/01/30 08:08:05;;;;;;;;;;;;;;;23.27;33.87;102472.09;4197340;28;19921;-67
2024/01/30 08:10:07;;;;;;;;;;;;;;;23.27;33.96;102477.47;4197294;28;19924;-67
2024/01/30 08:12:09;;;;;;;;;;;;;;;23.25;34.00;102476.69;4197145;28;19920;-68
2024/01/30 08:14:13;;;;;;;;;;;;;;;23.25;34.35;102482.91;4197104;28;19951;-67
2024/01/30 08:16:15;;;;;;;;;;;;;;;23.25;33.95;102485.59;4197553;28;19959;-68
2024/01/30 08:18:16;;;;;;;;;;;;;;;23.28;34.23;102487.22;4196912;28;19920;-68
2024/01/30 08:20:18;;;;;;;;;;;;;;;23.29;34.24;102488.94;4196965;28;20014;-67
2024/01/30 08:22:19;;;;;;;;;;;;;;;23.30;34.15;102493.34;4197223;28;20341;-67
2024/01/30 08:24:21;;;;;;;;;;;;;;;23.29;33.86;102497.88;4197130;28;19924;-67
2024/01/30 08:26:23;;;;;;;;;;;;;;;23.31;34.10;102497.78;4197076;28;19924;-67
2024/01/30 08:28:24;;;;;;;;;;;;;;;23.31;33.90;102500.47;4195790;28;19982;-67
2024/01/30 08:30:26;;;;;;;;;;;;;;;23.30;34.10;102493.34;4197180;28;19920;-67
2024/01/30 08:32:27;;;;;;;;;;;;;;;23.29;33.88;102500.56;4197127;28;20426;-68
2024/01/30 08:34:29;;;;;;;;;;;;;;;23.29;34.13;102500.56;4196651;28;19920;-67
2024/01/30 08:36:31;;;;;;;;;;;;;;;23.30;33.87;102512.16;4206128;28;19920;-67
2024/01/30 08:38:32;;;;;;;;;;;;;;;23.28;33.99;102503.31;4204739;28;19955;-67
2024/01/30 08:40:34;;;;;;;;;;;;;;;23.27;34.11;102510.53;4196886;28;19927;-67
2024/01/30 08:42:36;;;;;;;;;;;;;;;23.28;34.32;102506.88;4197166;28;19979;-67
2024/01/30 08:44:38;;;;;;;;;;;;;;;23.28;34.31;102511.38;4196798;28;20286;-67
2024/01/30 08:46:40;;;;;;;;;;;;;;;23.28;34.06;102509.56;4196922;28;19920;-67
2024/01/30 08:48:41;;;;;;;;;;;;;;;23.28;34.05;102520.31;4196152;28;19993;-68
2024/01/30 08:50:43;;;;;;;;;;;;;;;23.29;34.34;102516.66;4196836;28;19920;-67
2024/01/30 08:52:44;;;;;;;;;;;;;;;23.30;34.40;102517.53;4196882;28;19928;-67
2024/01/30 08:54:48;;;;;;;;;;;;;;;23.31;34.08;102521.94;4196772;28;20072;-67
2024/01/30 08:56:52;;;;;;;;;;;;;;;23.33;33.94;102527.22;4197021;28;19920;-67
2024/01/30 08:58:54;;;;;;;;;;;;;;;23.32;33.94;102528.16;4196863;28;19983;-67
2024/01/30 09:00:55;;;;;;;;;;;;;;;23.32;34.04;102534.41;4196918;28;19963;-67
2024/01/30 09:02:57;;;;;;;;;;;;;;;23.33;34.03;102536.13;4196549;28;19948;-67
2024/01/30 09:04:58;;;;;;;;;;;;;;;23.33;34.23;102536.13;4196679;28;19924;-67
2024/01/30 09:07:00;;;;;;;;;;;;;;;23.33;34.04;102541.50;4196900;28;20446;-67
2024/01/30 09:09:02;;;;;;;;;;;;;;;23.33;33.98;102552.25;4196498;28;19927;-67
2024/01/30 09:11:10;;;;;;;;;;;;;;;23.31;34.22;102543.41;4196829;28;20019;-67
2024/01/30 09:13:12;;;;;;;;;;;;;;;23.31;34.23;102539.84;4196813;28;20468;-67
2024/01/30 09:15:14;;;;;;;;;;;;;;;23.33;34.14;102543.31;4196718;28;20014;-67
2024/01/30 09:17:15;;;;;;;;;;;;;;;23.32;34.37;102552.31;4196814;28;19926;-67
2024/01/30 09:19:17;;;;;;;;;;;;;;;23.32;34.28;102547.84;4196348;28;19932;-67
2024/01/30 09:21:18;;;;;;;;;;;;;;;23.33;34.22;102551.38;4196768;28;20001;-67
2024/01/30 09:23:20;;;;;;;;;;;;;;;23.32;34.49;102552.31;4196690;28;20384;-67
2024/01/30 09:25:22;;;;;;;;;;;;;;;23.33;34.40;102549.56;4196627;28;20375;-67
2024/01/30 09:27:23;;;;;;;;;;;;;;;23.32;34.33;102552.31;4196598;28;19924;-67
2024/01/30 09:29:25;;;;;;;;;;;;;;;23.32;34.47;102560.38;4196487;28;19928;-66
2024/01/30 09:31:28;;;;;;;;;;;;;;;23.32;34.17;102555.00;4196817;28;19920;-69
2024/01/30 09:33:30;;;;;;;;;;;;;;;23.33;34.43;102556.72;4196486;28;19974;-68
2024/01/30 09:35:33;;;;;;;;;;;;;;;23.08;34.55;102521.47;4196290;28;20321;-68
2024/01/30 09:37:35;;;;;;;;;;;;;;;23.31;34.24;102566.69;4203889;28;19921;-68
2024/01/30 09:39:36;;;;;;;;;;;;;;;23.32;34.41;102572.00;4196652;28;20309;-66
2024/01/30 09:41:44;;;;;;;;;;;;;;;23.34;34.46;102575.44;4196378;28;20023;-68
2024/01/30 09:43:48;;;;;;;;;;;;;;;23.34;34.52;102572.75;4196711;28;19920;-68
2024/01/30 09:45:50;;;;;;;;;;;;;;;23.33;34.28;102575.53;4196430;28;19974;-68
2024/01/30 09:47:52;;;;;;;;;;;;;;;23.36;34.59;102578.03;4196282;28;19985;-68
2024/01/30 09:49:55;;;;;;;;;;;;;;;23.36;34.27;102583.41;4195771;28;19994;-68
2024/01/30 09:51:57;;;;;;;;;;;;;;;23.35;34.27;102584.38;4199338;28;19966;-67
2024/01/30 09:53:58;;;;;;;;;;;;;;;23.36;34.63;102589.63;4199494;28;19978;-68
2024/01/30 09:56:01;;;;;;;;;;;;;;;23.35;34.20;102584.38;4199329;28;19928;-68
2024/01/30 09:58:03;;;;;;;;;;;;;;;23.35;34.25;102595.97;4198676;28;19920;-68
2024/01/30 10:00:08;;;;;;;;;;;;;;;23.35;34.53;102590.59;4199506;28;20046;-68
2024/01/30 10:02:10;;;;;;;;;;;;;;;23.35;34.47;102590.59;4198646;28;20274;-68
2024/01/30 10:04:11;;;;;;;;;;;;;;;23.34;34.21;102583.47;4199324;28;20027;-67
2024/01/30 10:06:14;;;;;;;;;;;;;;;23.34;34.17;102594.22;4198938;28;19927;-68
2024/01/30 10:08:19;;;;;;;;;;;;;;;23.34;34.65;102588.00;4199031;28;19924;-68
2024/01/30 10:10:23;;;;;;;;;;;;;;;23.35;34.25;102600.47;4199210;28;19974;-68
2024/01/30 10:12:29;;;;;;;;;;;;;;;23.35;34.39;102598.63;4198813;28;19924;-68
2024/01/30 10:14:31;;;;;;;;;;;;;;;23.35;34.58;102595.97;4199359;28;20400;-68
2024/01/30 10:16:34;;;;;;;;;;;;;;;23.35;34.42;102604.00;4198590;28;20307;-67
2024/01/30 10:18:35;;;;;;;;;;;;;;;23.36;34.21;102612.94;4197850;28;19920;-68
2024/01/30 10:20:37;;;;;;;;;;;;;;;23.37;34.58;102612.00;4199177;28;20314;-67
2024/01/30 10:22:40;;;;;;;;;;;;;;;23.21;34.44;102579.81;4198885;28;20394;-68
2024/01/30 10:24:42;;;;;;;;;;;;;;;23.37;34.57;102612.84;4198792;28;20140;-68